Time;durP1;ratioP1;P1;durP2;ratioP2;P2;SDS_P1;SDS_P2;PMS_P1;PMS_P2;Temp;Humidity;BMP_temperature;BMP_pressure;BME280_temperature;BME280_humidity;BME280_pressure;Samples;Min_cycle;Max_cycle;Signal;HPM_P1;HPM_P2
2021/04/19 00:00:53;;;;;;;8.70;4.22;;;;;;;;;;5116557;28;20031;-58
2021/04/19 00:03:20;;;;;;;11.90;5.13;;;;;;;;;;5116016;27;20134;-58
2021/04/19 00:05:47;;;;;;;10.10;6.10;;;;;;;;;;5116487;28;20035;-58
2021/04/19 00:08:14;;;;;;;12.23;6.18;;;;;;;;;;5116393;28;20122;-58
2021/04/19 00:10:41;;;;;;;7.57;5.50;;;;;;;;;;5116465;28;20024;-58
2021/04/19 00:13:07;;;;;;;7.90;3.90;;;;;;;;;;5116257;28;20024;-58
2021/04/19 00:15:34;;;;;;;8.23;4.70;;;;;;;;;;5116300;28;20032;-58
2021/04/19 00:18:01;;;;;;;8.97;4.40;;;;;;;;;;5116280;28;20015;-58
2021/04/19 00:20:28;;;;;;;6.57;4.10;;;;;;;;;;5115332;28;20436;-58
2021/04/19 00:22:55;;;;;;;6.77;3.57;;;;;;;;;;5116288;28;20119;-60
2021/04/19 00:25:22;;;;;;;8.97;3.77;;;;;;;;;;5116193;28;20030;-60
2021/04/19 00:27:48;;;;;;;6.37;3.40;;;;;;;;;;5116291;28;20026;-59
2021/04/19 00:30:16;;;;;;;8.00;4.00;;;;;;;;;;5115941;28;20042;-59
2021/04/19 00:32:42;;;;;;;5.80;3.93;;;;;;;;;;5115992;28;20047;-59
2021/04/19 00:35:09;;;;;;;6.47;3.77;;;;;;;;;;5115864;28;20047;-59
2021/04/19 00:37:36;;;;;;;10.23;4.20;;;;;;;;;;5115769;28;20034;-59
2021/04/19 00:40:23;;;;;;;11.63;4.17;;;;;;;;;;5115853;28;20032;-59
2021/04/19 00:42:51;;;;;;;7.73;4.33;;;;;;;;;;5115843;28;20023;-59
2021/04/19 00:45:18;;;;;;;7.03;3.63;;;;;;;;;;5115758;28;20409;-59
2021/04/19 00:47:51;;;;;;;9.23;4.10;;;;;;;;;;5115667;28;20103;-59
2021/04/19 00:50:28;;;;;;;7.32;3.90;;;;;;;;;;5097335;28;20497;-59
2021/04/19 00:52:55;;;;;;;13.73;4.60;;;;;;;;;;5115482;28;20027;-57
2021/04/19 00:55:22;;;;;;;9.00;4.17;;;;;;;;;;5115632;28;20032;-58
2021/04/19 00:57:49;;;;;;;10.33;4.87;;;;;;;;;;5115493;28;20023;-60
2021/04/19 01:00:18;;;;;;;16.93;6.60;;;;;;;;;;5115409;28;20118;-58
2021/04/19 01:02:45;;;;;;;9.30;6.27;;;;;;;;;;5115387;28;20028;-59
2021/04/19 01:05:15;;;;;;;11.33;7.20;;;;;;;;;;5114855;28;20044;-58
2021/04/19 01:07:42;;;;;;;13.03;6.93;;;;;;;;;;5115278;28;20492;-58
2021/04/19 01:10:09;;;;;;;13.10;6.37;;;;;;;;;;5097032;28;20076;-58
2021/04/19 01:12:36;;;;;;;11.10;6.17;;;;;;;;;;5115284;28;20022;-58
2021/04/19 01:15:03;;;;;;;11.90;6.17;;;;;;;;;;5115463;28;20039;-58
2021/04/19 01:17:30;;;;;;;8.57;6.23;;;;;;;;;;5115175;28;20022;-58
2021/04/19 01:19:57;;;;;;;11.67;6.73;;;;;;;;;;5115066;28;20074;-58
2021/04/19 01:22:24;;;;;;;11.00;6.57;;;;;;;;;;5115043;28;20028;-58
2021/04/19 01:24:51;;;;;;;14.97;7.00;;;;;;;;;;5115150;28;20024;-58
2021/04/19 01:27:17;;;;;;;12.33;6.40;;;;;;;;;;5114843;28;20034;-58
2021/04/19 01:29:44;;;;;;;13.97;7.07;;;;;;;;;;5114972;28;20015;-58
2021/04/19 01:32:11;;;;;;;12.23;6.83;;;;;;;;;;5114805;27;20024;-58
2021/04/19 01:34:38;;;;;;;14.60;6.97;;;;;;;;;;5114808;28;20032;-58
2021/04/19 01:37:05;;;;;;;13.93;7.30;;;;;;;;;;5114652;28;20071;-58
2021/04/19 01:39:31;;;;;;;16.33;6.97;;;;;;;;;;5114655;28;20030;-58
2021/04/19 01:41:58;;;;;;;13.60;6.37;;;;;;;;;;5114589;28;20371;-58
2021/04/19 01:44:25;;;;;;;13.23;6.80;;;;;;;;;;5114760;28;20360;-58
2021/04/19 01:46:54;;;;;;;12.50;7.03;;;;;;;;;;5114560;28;20519;-58
2021/04/19 01:49:22;;;;;;;9.57;6.77;;;;;;;;;;5114612;28;20036;-58
2021/04/19 01:51:49;;;;;;;9.13;6.57;;;;;;;;;;5114425;28;20073;-58
2021/04/19 01:54:16;;;;;;;9.20;5.90;;;;;;;;;;5114205;28;20287;-57
2021/04/19 01:56:43;;;;;;;11.47;6.57;;;;;;;;;;5114365;28;20016;-58
2021/04/19 01:59:11;;;;;;;10.63;6.77;;;;;;;;;;5114323;28;20061;-58
2021/04/19 02:01:43;;;;;;;9.83;6.70;;;;;;;;;;5114294;28;20028;-58
2021/04/19 02:04:15;;;;;;;11.70;7.23;;;;;;;;;;5113803;27;20044;-58
2021/04/19 02:06:44;;;;;;;13.03;6.60;;;;;;;;;;5114087;28;20024;-58
2021/04/19 02:09:26;;;;;;;9.87;6.50;;;;;;;;;;5114041;28;20428;-58
2021/04/19 02:12:02;;;;;;;11.30;6.77;;;;;;;;;;5114096;28;20020;-58
2021/04/19 02:14:39;;;;;;;11.97;7.00;;;;;;;;;;5113981;28;20035;-58
2021/04/19 02:17:17;;;;;;;16.00;6.23;;;;;;;;;;5114147;28;20051;-58
2021/04/19 02:20:11;;;;;;;16.30;6.67;;;;;;;;;;5113979;28;20027;-58
2021/04/19 02:22:44;;;;;;;9.10;6.10;;;;;;;;;;5114158;28;20038;-58
2021/04/19 02:25:18;;;;;;;14.63;6.30;;;;;;;;;;5113983;28;20027;-58
2021/04/19 02:27:51;;;;;;;10.70;6.63;;;;;;;;;;5113742;28;20089;-58
2021/04/19 02:30:20;;;;;;;12.63;6.30;;;;;;;;;;5113745;28;20032;-58
2021/04/19 02:32:50;;;;;;;12.93;6.30;;;;;;;;;;5113850;28;20482;-58
2021/04/19 02:35:18;;;;;;;15.03;6.57;;;;;;;;;;5113527;28;20036;-58
2021/04/19 02:37:45;;;;;;;12.57;6.30;;;;;;;;;;5113690;28;20209;-58
2021/04/19 02:40:13;;;;;;;9.80;6.63;;;;;;;;;;5113621;28;20039;-58
2021/04/19 02:42:42;;;;;;;10.50;6.43;;;;;;;;;;5113339;28;20375;-58
2021/04/19 02:45:10;;;;;;;10.97;7.00;;;;;;;;;;5113430;28;20027;-58
2021/04/19 02:47:36;;;;;;;14.03;5.77;;;;;;;;;;5113485;28;20069;-58
2021/04/19 02:50:08;;;;;;;12.90;6.73;;;;;;;;;;5113839;28;20064;-58
2021/04/19 02:52:34;;;;;;;11.13;6.73;;;;;;;;;;5113432;28;20024;-58
2021/04/19 02:55:01;;;;;;;11.90;6.77;;;;;;;;;;5113371;28;20394;-58
2021/04/19 02:57:29;;;;;;;9.43;6.10;;;;;;;;;;5113355;28;20031;-58
2021/04/19 02:59:57;;;;;;;10.03;6.43;;;;;;;;;;5113336;28;20028;-58
2021/04/19 03:02:25;;;;;;;8.73;6.00;;;;;;;;;;5095152;28;20063;-58
2021/04/19 03:04:53;;;;;;;10.87;6.37;;;;;;;;;;5112874;28;20111;-58
2021/04/19 03:07:28;;;;;;;11.13;6.83;;;;;;;;;;5113476;28;20069;-58
2021/04/19 03:10:02;;;;;;;9.90;6.77;;;;;;;;;;5113240;28;20028;-58
2021/04/19 03:12:31;;;;;;;13.70;6.78;;;;;;;;;;5113338;28;20020;-59
2021/04/19 03:15:04;;;;;;;9.63;6.37;;;;;;;;;;5113000;28;20043;-59
2021/04/19 03:17:31;;;;;;;10.17;6.57;;;;;;;;;;5113047;28;20016;-58
2021/04/19 03:20:01;;;;;;;12.60;7.13;;;;;;;;;;5113224;28;20028;-59
2021/04/19 03:22:29;;;;;;;15.10;7.40;;;;;;;;;;5113422;28;20046;-59
2021/04/19 03:24:57;;;;;;;12.37;6.43;;;;;;;;;;5113232;28;20027;-58
2021/04/19 03:27:25;;;;;;;11.30;6.47;;;;;;;;;;5113419;28;20072;-59
2021/04/19 03:29:52;;;;;;;13.77;6.70;;;;;;;;;;5113138;28;20032;-58
2021/04/19 03:32:20;;;;;;;11.53;6.87;;;;;;;;;;5113042;28;20047;-59
2021/04/19 03:34:47;;;;;;;11.23;7.03;;;;;;;;;;5112989;28;20131;-59
2021/04/19 03:37:17;;;;;;;8.73;6.00;;;;;;;;;;5112978;28;20024;-58
2021/04/19 03:39:47;;;;;;;9.63;6.63;;;;;;;;;;5112960;28;20031;-58
2021/04/19 03:42:15;;;;;;;12.23;7.60;;;;;;;;;;5113015;28;20099;-58
2021/04/19 03:44:43;;;;;;;10.23;6.40;;;;;;;;;;5112910;28;20031;-58
2021/04/19 03:47:10;;;;;;;15.33;7.33;;;;;;;;;;5112822;28;20092;-57
2021/04/19 03:49:43;;;;;;;12.23;7.50;;;;;;;;;;5112875;28;20027;-57
2021/04/19 03:52:14;;;;;;;10.33;6.43;;;;;;;;;;5112680;28;20363;-57
2021/04/19 03:54:43;;;;;;;14.43;7.03;;;;;;;;;;5112722;28;20034;-57
2021/04/19 03:57:12;;;;;;;11.57;6.60;;;;;;;;;;5116562;28;20019;-57
2021/04/19 03:59:41;;;;;;;9.00;5.83;;;;;;;;;;5116639;28;20102;-57
2021/04/19 04:02:09;;;;;;;11.27;6.23;;;;;;;;;;5116945;28;20035;-57
2021/04/19 04:04:36;;;;;;;13.77;7.53;;;;;;;;;;5116158;27;20047;-57
2021/04/19 04:07:04;;;;;;;11.37;6.13;;;;;;;;;;5116506;28;20027;-57
2021/04/19 04:09:30;;;;;;;11.77;6.27;;;;;;;;;;5116494;28;20035;-57
2021/04/19 04:11:57;;;;;;;10.07;7.13;;;;;;;;;;5116399;28;20220;-57
2021/04/19 04:14:24;;;;;;;12.70;6.73;;;;;;;;;;5116453;28;20115;-57
2021/04/19 04:16:51;;;;;;;9.20;6.03;;;;;;;;;;5116333;28;20051;-57
2021/04/19 04:19:18;;;;;;;12.23;6.77;;;;;;;;;;5116294;28;20032;-57
2021/04/19 04:21:45;;;;;;;11.97;6.33;;;;;;;;;;5116230;28;20047;-57
2021/04/19 04:24:11;;;;;;;11.93;6.37;;;;;;;;;;5116141;28;20020;-57
2021/04/19 04:26:38;;;;;;;12.90;6.17;;;;;;;;;;5116060;28;20043;-57
2021/04/19 04:29:05;;;;;;;11.97;6.83;;;;;;;;;;5097849;28;20028;-57
2021/04/19 04:31:32;;;;;;;11.83;6.43;;;;;;;;;;5116346;28;20111;-57
2021/04/19 04:33:59;;;;;;;15.90;6.33;;;;;;;;;;5115921;28;20031;-57
2021/04/19 04:36:25;;;;;;;14.30;7.37;;;;;;;;;;5115898;28;20032;-57
2021/04/19 04:38:52;;;;;;;11.03;6.37;;;;;;;;;;5116302;28;20024;-57
2021/04/19 04:41:19;;;;;;;13.57;6.83;;;;;;;;;;5115859;28;20062;-57
2021/04/19 04:43:47;;;;;;;11.13;7.17;;;;;;;;;;5115881;28;20059;-57
2021/04/19 04:46:36;;;;;;;11.77;6.83;;;;;;;;;;5115743;28;20019;-57
2021/04/19 04:49:06;;;;;;;12.13;7.23;;;;;;;;;;5102985;28;20110;-57
2021/04/19 04:51:34;;;;;;;10.47;6.90;;;;;;;;;;5115571;28;20080;-57
2021/04/19 04:54:08;;;;;;;14.50;6.53;;;;;;;;;;5115504;28;20371;-57
2021/04/19 04:56:37;;;;;;;12.65;7.32;;;;;;;;;;5115565;28;20382;-57
2021/04/19 04:59:04;;;;;;;13.00;7.40;;;;;;;;;;5115670;28;20037;-57
2021/04/19 05:01:32;;;;;;;16.83;7.43;;;;;;;;;;5115475;28;20348;-57
2021/04/19 05:03:59;;;;;;;11.17;6.40;;;;;;;;;;5114982;27;20036;-57
2021/04/19 05:06:27;;;;;;;13.77;7.43;;;;;;;;;;5115077;28;20027;-57
2021/04/19 05:08:54;;;;;;;13.27;7.20;;;;;;;;;;5115383;28;20023;-57
2021/04/19 05:11:21;;;;;;;13.13;6.83;;;;;;;;;;5115297;28;20429;-57
2021/04/19 05:13:48;;;;;;;13.07;6.67;;;;;;;;;;5115116;28;20367;-57
2021/04/19 05:16:24;;;;;;;12.27;6.57;;;;;;;;;;5115325;28;20020;-57
2021/04/19 05:18:51;;;;;;;15.40;6.80;;;;;;;;;;5115247;28;20035;-57
2021/04/19 05:21:18;;;;;;;13.37;6.87;;;;;;;;;;5115143;28;20023;-57
2021/04/19 05:23:45;;;;;;;11.17;6.30;;;;;;;;;;5115113;28;20028;-57
2021/04/19 05:26:12;;;;;;;12.40;6.70;;;;;;;;;;5115109;28;20281;-57
2021/04/19 05:28:41;;;;;;;11.37;6.63;;;;;;;;;;5114924;28;20020;-57
2021/04/19 05:31:11;;;;;;;11.00;7.30;;;;;;;;;;5114889;28;20031;-57
2021/04/19 05:33:38;;;;;;;19.97;7.60;;;;;;;;;;5114719;28;20024;-57
2021/04/19 05:36:14;;;;;;;11.67;6.20;;;;;;;;;;5114875;28;20077;-57
2021/04/19 05:38:45;;;;;;;9.67;6.37;;;;;;;;;;5114760;28;20405;-57
2021/04/19 05:41:13;;;;;;;10.10;6.27;;;;;;;;;;5114725;28;20103;-57
2021/04/19 05:43:43;;;;;;;11.50;7.03;;;;;;;;;;5114721;28;20478;-57
2021/04/19 05:46:13;;;;;;;12.13;7.00;;;;;;;;;;5114654;28;20028;-57
2021/04/19 05:48:40;;;;;;;11.27;6.27;;;;;;;;;;5114500;28;20080;-57
2021/04/19 05:51:10;;;;;;;12.43;6.63;;;;;;;;;;5114546;28;20031;-57
2021/04/19 05:53:37;;;;;;;11.93;6.87;;;;;;;;;;5114308;28;20027;-57
2021/04/19 05:56:05;;;;;;;13.10;6.10;;;;;;;;;;5114459;28;20024;-57
2021/04/19 05:58:36;;;;;;;8.87;6.53;;;;;;;;;;5114254;28;20012;-57
2021/04/19 06:01:07;;;;;;;13.93;6.67;;;;;;;;;;5114336;28;20024;-57
2021/04/19 06:03:56;;;;;;;13.63;6.77;;;;;;;;;;5114310;28;20024;-57
2021/04/19 06:06:30;;;;;;;13.37;6.40;;;;;;;;;;5073622;28;20037;-57
2021/04/19 06:09:09;;;;;;;12.37;6.27;;;;;;;;;;5073567;28;20032;-57
2021/04/19 06:11:41;;;;;;;9.93;5.83;;;;;;;;;;5073409;28;20740;-57
2021/04/19 06:14:12;;;;;;;12.37;6.40;;;;;;;;;;5073419;28;20040;-57
2021/04/19 06:16:39;;;;;;;12.53;6.23;;;;;;;;;;5073384;28;20099;-57
2021/04/19 06:19:16;;;;;;;12.50;6.20;;;;;;;;;;5072834;28;20036;-57
2021/04/19 06:21:44;;;;;;;12.50;6.43;;;;;;;;;;5073345;28;20044;-57
2021/04/19 06:24:12;;;;;;;10.87;6.53;;;;;;;;;;5073393;28;20479;-57
2021/04/19 06:26:39;;;;;;;12.07;6.97;;;;;;;;;;5073163;28;20032;-57
2021/04/19 06:29:08;;;;;;;9.53;6.27;;;;;;;;;;5073131;28;20032;-57
2021/04/19 06:31:37;;;;;;;13.50;6.50;;;;;;;;;;5073153;28;20078;-56
2021/04/19 06:34:08;;;;;;;12.73;7.47;;;;;;;;;;5073120;28;20032;-57
2021/04/19 06:36:36;;;;;;;12.50;6.43;;;;;;;;;;5073069;28;20086;-57
2021/04/19 06:39:04;;;;;;;10.80;6.23;;;;;;;;;;5073116;28;20071;-56
2021/04/19 06:41:31;;;;;;;11.30;6.60;;;;;;;;;;5073008;28;20426;-57
2021/04/19 06:43:58;;;;;;;15.17;5.70;;;;;;;;;;5072951;28;20017;-57
2021/04/19 06:46:31;;;;;;;11.37;6.27;;;;;;;;;;5072911;28;20051;-57
2021/04/19 06:48:58;;;;;;;10.87;5.83;;;;;;;;;;5072998;28;20510;-57
2021/04/19 06:51:25;;;;;;;10.80;6.33;;;;;;;;;;5072988;28;20067;-57
2021/04/19 06:53:53;;;;;;;13.07;6.40;;;;;;;;;;5072818;28;20032;-57
2021/04/19 06:56:27;;;;;;;8.77;5.90;;;;;;;;;;5072848;28;20028;-57
2021/04/19 06:58:55;;;;;;;10.63;5.68;;;;;;;;;;5072912;28;20039;-57
2021/04/19 07:01:23;;;;;;;9.83;6.17;;;;;;;;;;5072748;28;20040;-57
2021/04/19 07:03:56;;;;;;;12.73;6.03;;;;;;;;;;5073963;27;20020;-57
2021/04/19 07:06:27;;;;;;;11.53;5.90;;;;;;;;;;5072875;28;20082;-56
2021/04/19 07:09:05;;;;;;;9.60;5.87;;;;;;;;;;5072753;28;20063;-57
2021/04/19 07:11:37;;;;;;;8.20;5.13;;;;;;;;;;5072783;28;20020;-57
2021/04/19 07:14:03;;;;;;;8.63;5.97;;;;;;;;;;5072710;28;20031;-57
2021/04/19 07:16:30;;;;;;;12.00;6.37;;;;;;;;;;5072691;28;20033;-57
2021/04/19 07:18:58;;;;;;;9.60;6.30;;;;;;;;;;5072667;28;20444;-57
2021/04/19 07:21:26;;;;;;;11.97;6.47;;;;;;;;;;5072693;28;20104;-57
2021/04/19 07:23:53;;;;;;;10.60;5.63;;;;;;;;;;5072654;28;20033;-57
2021/04/19 07:26:19;;;;;;;8.43;5.17;;;;;;;;;;5072617;28;20029;-57
2021/04/19 07:28:46;;;;;;;8.10;5.57;;;;;;;;;;5072587;28;20036;-57
2021/04/19 07:31:14;;;;;;;9.27;5.57;;;;;;;;;;5076507;28;20028;-57
2021/04/19 07:33:40;;;;;;;9.80;5.33;;;;;;;;;;5076483;28;20045;-56
2021/04/19 07:36:22;;;;;;;8.70;5.00;;;;;;;;;;5076469;28;20107;-57
2021/04/19 07:38:49;;;;;;;9.17;4.90;;;;;;;;;;5076579;28;20040;-57
2021/04/19 07:41:16;;;;;;;10.47;5.30;;;;;;;;;;5076404;28;20029;-57
2021/04/19 07:43:44;;;;;;;6.80;5.20;;;;;;;;;;5076293;28;20442;-57
2021/04/19 07:46:13;;;;;;;8.47;4.93;;;;;;;;;;5076225;28;20365;-57
2021/04/19 07:48:43;;;;;;;7.23;5.07;;;;;;;;;;5076167;28;20033;-57
2021/04/19 07:51:28;;;;;;;6.43;4.50;;;;;;;;;;5076164;28;20164;-56
2021/04/19 07:54:15;;;;;;;6.80;4.95;;;;;;;;;;5076080;28;20058;-57
2021/04/19 07:56:44;;;;;;;9.37;5.10;;;;;;;;;;5075989;28;20027;-56
2021/04/19 07:59:31;;;;;;;10.00;6.47;;;;;;;;;;5076070;28;20025;-57
2021/04/19 08:02:05;;;;;;;9.97;5.93;;;;;;;;;;5075982;28;20029;-57
2021/04/19 08:04:33;;;;;;;11.95;5.50;;;;;;;;;;5086418;27;20398;-57
2021/04/19 08:07:00;;;;;;;10.70;5.60;;;;;;;;;;5116566;28;20035;-57
2021/04/19 08:09:27;;;;;;;8.60;4.83;;;;;;;;;;5116561;28;20034;-57
2021/04/19 08:11:57;;;;;;;8.00;5.10;;;;;;;;;;5116598;28;20015;-57
2021/04/19 08:14:26;;;;;;;6.67;4.50;;;;;;;;;;5116493;28;20360;-57
2021/04/19 08:17:09;;;;;;;12.33;5.97;;;;;;;;;;5116329;28;20016;-57
2021/04/19 08:19:38;;;;;;;8.67;4.87;;;;;;;;;;5116562;28;20028;-57
2021/04/19 08:22:23;;;;;;;9.23;4.90;;;;;;;;;;5116157;28;20027;-57
2021/04/19 08:24:50;;;;;;;7.70;4.95;;;;;;;;;;5116295;28;20070;-56
2021/04/19 08:27:24;;;;;;;9.53;5.53;;;;;;;;;;5116085;28;20050;-57
2021/04/19 08:29:52;;;;;;;8.98;4.88;;;;;;;;;;5116080;28;20441;-57
2021/04/19 08:32:20;;;;;;;7.70;5.27;;;;;;;;;;5116000;28;20080;-57
2021/04/19 08:34:49;;;;;;;6.10;4.20;;;;;;;;;;5115910;28;20031;-57
2021/04/19 08:37:20;;;;;;;8.17;4.90;;;;;;;;;;5115963;28;20442;-57
2021/04/19 08:39:47;;;;;;;10.17;4.90;;;;;;;;;;5115941;28;20482;-57
2021/04/19 08:42:14;;;;;;;8.63;5.10;;;;;;;;;;5115228;28;20095;-57
2021/04/19 08:44:41;;;;;;;6.37;4.70;;;;;;;;;;5115842;28;20023;-56
2021/04/19 08:47:09;;;;;;;6.80;5.10;;;;;;;;;;5115846;28;20019;-57
2021/04/19 08:49:44;;;;;;;8.50;5.30;;;;;;;;;;5115698;28;20134;-57
2021/04/19 08:52:11;;;;;;;8.93;4.80;;;;;;;;;;5115509;28;20031;-57
2021/04/19 08:54:38;;;;;;;7.83;4.77;;;;;;;;;;5115524;28;20394;-57
2021/04/19 08:57:05;;;;;;;6.37;4.73;;;;;;;;;;5115553;28;20019;-57
2021/04/19 08:59:32;;;;;;;8.33;4.73;;;;;;;;;;5115479;28;20028;-57
2021/04/19 09:01:59;;;;;;;8.33;5.47;;;;;;;;;;5115497;28;20077;-57
2021/04/19 09:04:39;;;;;;;8.03;4.80;;;;;;;;;;5115009;27;20055;-57
2021/04/19 09:07:06;;;;;;;8.97;4.57;;;;;;;;;;5115342;28;20039;-57
2021/04/19 09:09:33;;;;;;;7.93;4.70;;;;;;;;;;5115445;28;20024;-57
2021/04/19 09:12:12;;;;;;;8.30;4.60;;;;;;;;;;5115307;28;20051;-57
2021/04/19 09:14:40;;;;;;;7.77;4.73;;;;;;;;;;5115202;28;20490;-57
2021/04/19 09:17:07;;;;;;;8.27;4.63;;;;;;;;;;5115202;28;20024;-57
2021/04/19 09:19:38;;;;;;;10.00;4.70;;;;;;;;;;5115153;28;20413;-57
2021/04/19 09:22:09;;;;;;;9.27;4.93;;;;;;;;;;5115147;28;20028;-57
2021/04/19 09:24:54;;;;;;;7.03;4.73;;;;;;;;;;5115144;28;20494;-57
2021/04/19 09:27:39;;;;;;;9.75;5.10;;;;;;;;;;5114992;28;20027;-57
2021/04/19 09:33:06;;;;;;;10.05;4.63;;;;;;;;;;5114949;28;20020;-57
2021/04/19 09:35:42;;;;;;;6.87;4.30;;;;;;;;;;5114743;28;20043;-57
2021/04/19 09:38:13;;;;;;;7.33;4.83;;;;;;;;;;5114998;28;20043;-57
2021/04/19 09:40:46;;;;;;;10.87;4.57;;;;;;;;;;5114769;28;20055;-57
2021/04/19 09:43:13;;;;;;;9.67;4.80;;;;;;;;;;5114787;28;20023;-57
2021/04/19 09:45:46;;;;;;;9.40;4.97;;;;;;;;;;5114721;28;20027;-57
2021/04/19 09:48:25;;;;;;;7.53;4.30;;;;;;;;;;5114664;28;20022;-57
2021/04/19 09:50:53;;;;;;;6.70;3.67;;;;;;;;;;5114624;28;20051;-57
2021/04/19 09:53:20;;;;;;;7.00;4.13;;;;;;;;;;5113388;28;20020;-57
2021/04/19 09:55:47;;;;;;;8.80;4.50;;;;;;;;;;5114451;28;20031;-57
2021/04/19 09:58:17;;;;;;;9.43;4.97;;;;;;;;;;5114484;28;20016;-57
2021/04/19 10:00:43;;;;;;;8.90;4.50;;;;;;;;;;5096103;28;20482;-57
2021/04/19 10:03:11;;;;;;;7.00;4.67;;;;;;;;;;5114297;28;20031;-57
2021/04/19 10:05:39;;;;;;;6.20;4.30;;;;;;;;;;5113652;27;20044;-57
2021/04/19 10:08:06;;;;;;;10.57;4.93;;;;;;;;;;5114140;28;20036;-57
2021/04/19 10:10:33;;;;;;;6.23;4.60;;;;;;;;;;5114159;28;20024;-57
2021/04/19 10:13:00;;;;;;;7.50;4.50;;;;;;;;;;5114084;28;20028;-57
2021/04/19 10:15:27;;;;;;;8.10;5.17;;;;;;;;;;5114353;28;20424;-57
2021/04/19 10:17:54;;;;;;;7.57;4.33;;;;;;;;;;5113981;28;20382;-57
2021/04/19 10:20:25;;;;;;;7.57;5.00;;;;;;;;;;5114072;28;20027;-57
2021/04/19 10:23:08;;;;;;;8.10;5.30;;;;;;;;;;5113975;28;20081;-57
2021/04/19 10:25:44;;;;;;;10.57;5.17;;;;;;;;;;5114006;28;20020;-57
2021/04/19 10:28:11;;;;;;;9.73;4.90;;;;;;;;;;5113805;28;20063;-57
2021/04/19 10:30:38;;;;;;;6.20;4.67;;;;;;;;;;5113867;28;20026;-57
2021/04/19 10:33:05;;;;;;;7.43;4.10;;;;;;;;;;5113663;28;20122;-56
2021/04/19 10:35:36;;;;;;;7.17;4.63;;;;;;;;;;5113675;28;20057;-57
2021/04/19 10:38:03;;;;;;;7.67;5.07;;;;;;;;;;5113606;28;20437;-57
2021/04/19 10:40:31;;;;;;;7.30;4.37;;;;;;;;;;5113590;28;20367;-56
2021/04/19 10:43:08;;;;;;;6.27;4.50;;;;;;;;;;5113588;28;20421;-57
2021/04/19 10:45:35;;;;;;;8.10;4.20;;;;;;;;;;5113659;28;20027;-57
2021/04/19 10:48:20;;;;;;;7.10;4.63;;;;;;;;;;5113500;28;20080;-57
2021/04/19 10:50:48;;;;;;;8.95;4.93;;;;;;;;;;5113517;28;20031;-56
2021/04/19 10:53:30;;;;;;;8.90;5.20;;;;;;;;;;5113472;28;20023;-57
2021/04/19 10:55:58;;;;;;;6.87;4.33;;;;;;;;;;5113417;28;20393;-57
2021/04/19 10:58:25;;;;;;;7.33;5.13;;;;;;;;;;5113495;28;20043;-57
2021/04/19 11:00:51;;;;;;;6.77;4.67;;;;;;;;;;5113351;28;20099;-57
2021/04/19 11:03:18;;;;;;;6.73;4.83;;;;;;;;;;5113317;28;20107;-57
2021/04/19 11:05:45;;;;;;;10.57;6.43;;;;;;;;;;5112515;28;20043;-57
2021/04/19 11:08:12;;;;;;;9.63;5.53;;;;;;;;;;5113399;28;20054;-57
2021/04/19 11:10:39;;;;;;;8.63;4.80;;;;;;;;;;5113319;28;20024;-57
2021/04/19 11:13:07;;;;;;;7.27;4.67;;;;;;;;;;5113291;28;20050;-57
2021/04/19 11:15:41;;;;;;;11.30;5.13;;;;;;;;;;5113180;28;20039;-56
2021/04/19 11:18:20;;;;;;;11.63;4.83;;;;;;;;;;5113113;28;20092;-57
2021/04/19 11:20:47;;;;;;;12.47;5.27;;;;;;;;;;5113194;28;20027;-57
2021/04/19 11:23:25;;;;;;;11.00;5.77;;;;;;;;;;5113280;28;20064;-57
2021/04/19 11:25:52;;;;;;;9.97;5.30;;;;;;;;;;5113528;28;20019;-57
2021/04/19 11:28:31;;;;;;;7.47;5.00;;;;;;;;;;5113086;28;20020;-57
2021/04/19 11:31:05;;;;;;;11.83;5.83;;;;;;;;;;5113013;28;20028;-57
2021/04/19 11:33:32;;;;;;;9.00;5.13;;;;;;;;;;5112874;28;20471;-57
2021/04/19 11:36:01;;;;;;;10.33;5.50;;;;;;;;;;5113081;28;20498;-57
2021/04/19 11:38:28;;;;;;;10.10;5.87;;;;;;;;;;5113032;28;20023;-57
2021/04/19 11:41:02;;;;;;;8.07;5.07;;;;;;;;;;5113048;28;20072;-57
2021/04/19 11:43:30;;;;;;;7.53;4.82;;;;;;;;;;5113065;28;20073;-57
2021/04/19 11:45:59;;;;;;;7.73;4.80;;;;;;;;;;5112851;28;20065;-56
2021/04/19 11:48:26;;;;;;;9.13;4.53;;;;;;;;;;5112899;28;20024;-57
2021/04/19 11:50:53;;;;;;;10.53;5.10;;;;;;;;;;5112931;28;20028;-58
2021/04/19 11:53:30;;;;;;;10.90;5.23;;;;;;;;;;5113491;28;20081;-58
2021/04/19 11:55:57;;;;;;;7.77;4.73;;;;;;;;;;5112932;28;20320;-58
2021/04/19 11:58:24;;;;;;;8.50;4.67;;;;;;;;;;5112918;28;20028;-57
2021/04/19 12:00:54;;;;;;;14.30;5.63;;;;;;;;;;5112893;28;20035;-57
2021/04/19 12:03:22;;;;;;;8.50;5.70;;;;;;;;;;5112780;28;20030;-57
2021/04/19 12:05:49;;;;;;;11.50;6.20;;;;;;;;;;5112144;28;20051;-57
2021/04/19 12:08:16;;;;;;;13.77;5.50;;;;;;;;;;5112822;28;20024;-58
2021/04/19 12:10:43;;;;;;;7.60;5.20;;;;;;;;;;5112712;28;20032;-57
2021/04/19 12:13:19;;;;;;;7.53;4.40;;;;;;;;;;5112748;28;20023;-58
2021/04/19 12:15:52;;;;;;;10.90;4.87;;;;;;;;;;5112443;28;20028;-58
2021/04/19 12:18:19;;;;;;;12.20;4.87;;;;;;;;;;5116421;28;20028;-58
2021/04/19 12:20:46;;;;;;;13.80;5.10;;;;;;;;;;5116349;28;20399;-57
2021/04/19 12:23:13;;;;;;;7.13;4.20;;;;;;;;;;5116337;28;20045;-57
2021/04/19 12:25:39;;;;;;;9.53;4.83;;;;;;;;;;5116300;28;20019;-57
2021/04/19 12:28:07;;;;;;;8.00;4.40;;;;;;;;;;5116164;28;20131;-58
2021/04/19 12:30:34;;;;;;;9.30;4.43;;;;;;;;;;5116157;28;20027;-57
2021/04/19 12:33:01;;;;;;;10.73;5.40;;;;;;;;;;5116072;28;20027;-58
2021/04/19 12:35:28;;;;;;;7.90;4.57;;;;;;;;;;5115946;28;20040;-57
2021/04/19 12:37:55;;;;;;;8.60;4.83;;;;;;;;;;5115968;28;20027;-58
2021/04/19 12:40:22;;;;;;;12.07;4.87;;;;;;;;;;5115985;28;20390;-58
2021/04/19 12:42:51;;;;;;;9.73;5.37;;;;;;;;;;5116262;28;20043;-58
2021/04/19 12:45:21;;;;;;;10.70;4.53;;;;;;;;;;5115708;28;20039;-57
2021/04/19 12:47:47;;;;;;;9.80;5.47;;;;;;;;;;5115760;28;20111;-58
2021/04/19 12:50:14;;;;;;;12.20;5.73;;;;;;;;;;5116024;28;20032;-57
2021/04/19 12:52:41;;;;;;;7.77;5.43;;;;;;;;;;5115542;28;20019;-58
2021/04/19 12:55:08;;;;;;;11.63;5.47;;;;;;;;;;5115592;28;20039;-58
2021/04/19 12:57:35;;;;;;;8.83;4.80;;;;;;;;;;5115542;28;20516;-58
2021/04/19 13:00:02;;;;;;;10.20;4.97;;;;;;;;;;5115587;28;20031;-58
2021/04/19 13:02:28;;;;;;;14.43;6.17;;;;;;;;;;5115545;28;20030;-58
2021/04/19 13:04:55;;;;;;;14.67;6.63;;;;;;;;;;5114953;27;21449;-58
2021/04/19 13:07:22;;;;;;;13.77;6.40;;;;;;;;;;5115438;28;20055;-58
2021/04/19 13:09:49;;;;;;;19.93;6.70;;;;;;;;;;5115340;28;20080;-57
2021/04/19 13:12:16;;;;;;;13.70;5.60;;;;;;;;;;5115463;28;20020;-58
2021/04/19 13:14:42;;;;;;;13.40;6.43;;;;;;;;;;5115257;28;20032;-58
2021/04/19 13:17:10;;;;;;;18.73;6.43;;;;;;;;;;5115205;28;20027;-58
2021/04/19 13:19:39;;;;;;;10.67;6.20;;;;;;;;;;5115285;28;20053;-58
2021/04/19 13:22:06;;;;;;;15.80;6.60;;;;;;;;;;5115127;28;20042;-58
2021/04/19 13:24:33;;;;;;;20.90;7.13;;;;;;;;;;5115155;28;20023;-58
2021/04/19 13:27:02;;;;;;;15.80;6.97;;;;;;;;;;5114762;28;20485;-58
2021/04/19 13:29:29;;;;;;;13.97;6.50;;;;;;;;;;5115118;28;20115;-58
2021/04/19 13:31:56;;;;;;;12.90;5.93;;;;;;;;;;5115029;28;20031;-58
2021/04/19 13:34:23;;;;;;;13.40;6.20;;;;;;;;;;5114861;28;20036;-58
2021/04/19 13:36:50;;;;;;;10.87;5.80;;;;;;;;;;5114810;28;20062;-58
2021/04/19 13:39:17;;;;;;;12.20;6.50;;;;;;;;;;5114788;28;20066;-58
2021/04/19 13:41:43;;;;;;;9.80;5.20;;;;;;;;;;5114786;28;20297;-58
2021/04/19 13:44:10;;;;;;;12.40;6.27;;;;;;;;;;5114758;28;20532;-58
2021/04/19 13:46:37;;;;;;;10.30;5.73;;;;;;;;;;5114622;28;20028;-58
2021/04/19 13:49:04;;;;;;;12.27;5.77;;;;;;;;;;5114601;28;20020;-58
2021/04/19 13:51:30;;;;;;;9.47;5.00;;;;;;;;;;5114617;28;20028;-58
2021/04/19 13:53:57;;;;;;;12.13;5.50;;;;;;;;;;5114361;28;20032;-58
2021/04/19 13:56:24;;;;;;;10.87;4.93;;;;;;;;;;5114454;28;20032;-58
2021/04/19 13:58:51;;;;;;;13.03;6.40;;;;;;;;;;5114453;28;20019;-58
2021/04/19 14:01:17;;;;;;;12.87;6.20;;;;;;;;;;5114488;28;20031;-58
2021/04/19 14:03:44;;;;;;;14.03;6.00;;;;;;;;;;5114277;28;20016;-58
2021/04/19 14:06:11;;;;;;;13.90;6.77;;;;;;;;;;5113790;27;20048;-58
2021/04/19 14:08:38;;;;;;;13.23;6.33;;;;;;;;;;5114213;28;20169;-58
2021/04/19 14:11:04;;;;;;;12.53;6.50;;;;;;;;;;5114349;28;20020;-58
2021/04/19 14:13:31;;;;;;;14.97;6.60;;;;;;;;;;5114092;28;20482;-58
2021/04/19 14:15:58;;;;;;;14.87;6.37;;;;;;;;;;5114038;28;20085;-58
2021/04/19 14:18:25;;;;;;;9.10;5.07;;;;;;;;;;5114339;28;20016;-58
2021/04/19 14:20:52;;;;;;;12.47;6.03;;;;;;;;;;5113983;28;20050;-58
2021/04/19 14:23:20;;;;;;;11.30;6.20;;;;;;;;;;5114001;28;20051;-58
2021/04/19 14:25:47;;;;;;;9.97;5.13;;;;;;;;;;5113884;28;20024;-58
2021/04/19 14:28:14;;;;;;;11.73;5.37;;;;;;;;;;5113977;28;20020;-58
2021/04/19 14:30:41;;;;;;;10.37;5.30;;;;;;;;;;5113918;28;20023;-58
2021/04/19 14:33:07;;;;;;;14.87;6.47;;;;;;;;;;5113933;28;20047;-58
2021/04/19 14:35:34;;;;;;;17.07;6.70;;;;;;;;;;5113682;28;20069;-58
2021/04/19 14:38:01;;;;;;;12.83;6.70;;;;;;;;;;5113796;28;20533;-59
2021/04/19 14:40:28;;;;;;;11.17;5.47;;;;;;;;;;5113053;28;20440;-58
2021/04/19 14:42:55;;;;;;;10.80;4.67;;;;;;;;;;5113712;28;20073;-58
2021/04/19 14:45:21;;;;;;;11.37;4.73;;;;;;;;;;5113706;28;20027;-59
2021/04/19 14:47:48;;;;;;;15.37;5.60;;;;;;;;;;5113640;28;20095;-59
2021/04/19 14:50:15;;;;;;;15.57;4.87;;;;;;;;;;5113611;28;20062;-59